createdAt,value
2023-03-26T00:01:17.474Z,98789.81
2023-03-26T00:03:47.164Z,98791.38
2023-03-26T00:06:17.430Z,98793.50
2023-03-26T00:08:45.824Z,98795.34
2023-03-26T00:11:16.037Z,98798.75
2023-03-26T00:13:43.982Z,98797.06
2023-03-26T00:16:12.221Z,98797.50
2023-03-26T00:18:40.395Z,98800.19
2023-03-26T00:21:27.664Z,98812.97
2023-03-26T00:24:06.742Z,98820.66
2023-03-26T00:26:34.797Z,98814.41
2023-03-26T00:29:03.397Z,98813.53
2023-03-26T00:31:30.840Z,98825.50
2023-03-26T00:33:57.849Z,98819.38
2023-03-26T00:36:26.732Z,98828.19
2023-03-26T00:38:54.595Z,98835.00
2023-03-26T00:41:25.168Z,98831.44
2023-03-26T00:43:56.485Z,98837.44
2023-03-26T00:46:25.976Z,98835.84
2023-03-26T00:48:53.077Z,98839.41
2023-03-26T00:51:21.271Z,98833.88
2023-03-26T00:53:49.620Z,98842.81
2023-03-26T00:56:17.277Z,98848.63
2023-03-26T00:58:44.880Z,98838.56
2023-03-26T01:01:19.102Z,98849.88
2023-03-26T01:04:00.722Z,98851.59
2023-03-26T01:06:35.393Z,98854.44
2023-03-26T01:09:06.698Z,98855.56
2023-03-26T01:11:35.253Z,98865.38
2023-03-26T01:14:11.072Z,98865.66
2023-03-26T01:17:06.852Z,98868.78
2023-03-26T01:19:54.443Z,98876.88
2023-03-26T01:22:23.742Z,98888.50
2023-03-26T01:24:56.735Z,98884.09
2023-03-26T01:27:41.017Z,98881.13
2023-03-26T01:30:37.156Z,98883.72
2023-03-26T01:33:33.947Z,98903.28
2023-03-26T01:36:23.507Z,98898.47
2023-03-26T01:38:55.346Z,98894.22
2023-03-26T01:41:44.160Z,98902.16
2023-03-26T01:44:38.003Z,98899.31
2023-03-26T01:47:06.486Z,98905.25
2023-03-26T01:49:33.793Z,98908.69
2023-03-26T01:52:00.693Z,98904.97
2023-03-26T01:54:31.434Z,98911.19
2023-03-26T01:57:33.182Z,98909.66
2023-03-26T02:00:24.727Z,98919.13
2023-03-26T02:03:17.517Z,98912.75
2023-03-26T02:06:15.794Z,98917.03
2023-03-26T02:08:54.040Z,98919.66
2023-03-26T02:11:21.571Z,98913.00
2023-03-26T02:13:51.919Z,98922.81
2023-03-26T02:16:20.595Z,98929.34
2023-03-26T02:18:51.414Z,98924.25
2023-03-26T02:21:21.366Z,98927.94
2023-03-26T02:23:57.692Z,98927.50
2023-03-26T02:26:25.270Z,98926.16
2023-03-26T02:28:51.954Z,98933.53
2023-03-26T02:31:22.137Z,98933.31
2023-03-26T02:33:49.507Z,98933.44
2023-03-26T02:36:19.769Z,98936.78
2023-03-26T02:38:46.909Z,98949.69
2023-03-26T02:41:13.608Z,98962.00
2023-03-26T02:43:40.284Z,98960.41
2023-03-26T02:46:06.935Z,98966.34
2023-03-26T02:48:34.775Z,98973.44
2023-03-26T02:51:04.007Z,98968.13
2023-03-26T02:53:30.678Z,98974.69
2023-03-26T02:55:58.497Z,98983.47
2023-03-26T02:58:26.406Z,98987.63
2023-03-26T03:00:56.683Z,98987.16
2023-03-26T03:03:27.522Z,99002.81
2023-03-26T03:05:55.465Z,98994.56
2023-03-26T03:08:26.264Z,99003.53
2023-03-26T03:11:01.162Z,99003.53
2023-03-26T03:13:28.675Z,99013.50
2023-03-26T03:15:56.398Z,99027.38
2023-03-26T03:18:23.210Z,99027.78
2023-03-26T03:20:50.138Z,99045.56
2023-03-26T03:23:17.213Z,99046.84
2023-03-26T03:25:43.953Z,99054.69
2023-03-26T03:28:11.620Z,99062.31
2023-03-26T03:30:38.356Z,99065.75
2023-03-26T03:33:06.265Z,99069.69
2023-03-26T03:35:33.761Z,99088.91
2023-03-26T03:38:00.665Z,99097.13
2023-03-26T03:40:27.682Z,99093.19
2023-03-26T03:42:54.373Z,99102.59
2023-03-26T03:45:21.296Z,99107.16
2023-03-26T03:47:48.091Z,99112.56
2023-03-26T03:50:15.557Z,99119.28
2023-03-26T03:52:42.214Z,99114.25
2023-03-26T03:55:10.616Z,99121.25
2023-03-26T03:57:37.353Z,99131.13
2023-03-26T04:00:09.055Z,99130.53
2023-03-26T04:02:35.976Z,99143.03
2023-03-26T04:05:04.108Z,99159.00
2023-03-26T04:07:31.290Z,99162.09
2023-03-26T04:10:00.132Z,99173.72
2023-03-26T04:12:28.345Z,99179.22
2023-03-26T04:14:56.105Z,99187.03
2023-03-26T04:17:23.256Z,99186.88
2023-03-26T04:19:52.941Z,99183.69
2023-03-26T04:22:19.828Z,99188.38
2023-03-26T04:24:48.804Z,99204.66
2023-03-26T04:27:19.692Z,99191.44
2023-03-26T04:29:49.865Z,99208.72
2023-03-26T04:32:26.647Z,99217.09
2023-03-26T04:34:53.754Z,99226.03
2023-03-26T04:37:27.713Z,99236.31
2023-03-26T04:39:55.156Z,99259.03
2023-03-26T04:42:22.339Z,99273.78
2023-03-26T04:44:52.368Z,99285.16
2023-03-26T04:47:19.325Z,99300.66
2023-03-26T04:49:47.447Z,99305.41
2023-03-26T04:52:15.017Z,99318.97
2023-03-26T04:54:44.473Z,99326.34
2023-03-26T04:57:39.270Z,99354.81
2023-03-26T05:00:18.670Z,99370.97
2023-03-26T05:02:45.927Z,99381.13
2023-03-26T05:05:12.857Z,99409.81
2023-03-26T05:07:39.553Z,99421.72
2023-03-26T05:10:06.796Z,99447.78
2023-03-26T05:12:33.501Z,99465.13
2023-03-26T05:15:00.378Z,99482.75
2023-03-26T05:17:30.824Z,99505.03
2023-03-26T05:19:57.746Z,99534.09
2023-03-26T05:22:24.450Z,99546.69
2023-03-26T05:24:51.508Z,99567.91
2023-03-26T05:27:20.253Z,99628.25
2023-03-26T05:29:46.993Z,99640.00
2023-03-26T05:32:13.959Z,99663.34
2023-03-26T05:34:43.108Z,99693.47
2023-03-26T05:37:09.741Z,99715.97
2023-03-26T05:39:36.424Z,99750.94
2023-03-26T05:42:03.142Z,99770.19
2023-03-26T05:44:29.944Z,99786.66
2023-03-26T05:46:56.659Z,99799.84
2023-03-26T05:49:23.412Z,99823.66
2023-03-26T05:51:50.547Z,99839.41
2023-03-26T05:54:17.364Z,99916.50
2023-03-26T05:56:44.093Z,99926.97
2023-03-26T05:59:10.939Z,99935.13
2023-03-26T06:01:38.484Z,99939.06
2023-03-26T06:04:05.556Z,99965.41
2023-03-26T06:06:33.292Z,99980.06
2023-03-26T06:09:02.312Z,99999.78
2023-03-26T06:11:31.099Z,100011.91
2023-03-26T06:13:58.058Z,100022.66
2023-03-26T06:16:27.473Z,100029.09
2023-03-26T06:18:56.573Z,100071.50
2023-03-26T06:21:25.717Z,100077.16
2023-03-26T06:23:52.986Z,100094.19
2023-03-26T06:26:20.781Z,100105.59
2023-03-26T06:28:47.563Z,100108.84
2023-03-26T06:31:14.280Z,100115.63
2023-03-26T06:33:41.047Z,100116.97
2023-03-26T06:36:08.102Z,100123.34
2023-03-26T06:38:34.752Z,100153.97
2023-03-26T06:41:06.284Z,100170.13
2023-03-26T06:43:33.958Z,100178.34
2023-03-26T06:46:01.442Z,100195.88
2023-03-26T06:48:28.629Z,100201.06
2023-03-26T06:50:55.509Z,100215.00
2023-03-26T06:53:22.448Z,100232.03
2023-03-26T06:55:49.216Z,100230.19
2023-03-26T06:58:16.822Z,100239.84
2023-03-26T07:00:43.857Z,100243.84
2023-03-26T07:03:11.433Z,100252.66
2023-03-26T07:05:41.134Z,100266.19
2023-03-26T07:08:07.784Z,100276.25
2023-03-26T07:10:34.486Z,100282.84
2023-03-26T07:13:01.109Z,100283.84
2023-03-26T07:15:28.938Z,100288.94
2023-03-26T07:17:56.362Z,100288.56
2023-03-26T07:20:23.808Z,100287.88
2023-03-26T07:22:51.077Z,100297.69
2023-03-26T07:25:18.568Z,100298.38
2023-03-26T07:28:13.063Z,100312.03
2023-03-26T07:30:43.154Z,100308.44
2023-03-26T07:33:21.345Z,100308.97
2023-03-26T07:36:17.965Z,100311.53
2023-03-26T07:39:07.886Z,100305.53
2023-03-26T07:41:50.065Z,100307.81
2023-03-26T07:44:22.716Z,100311.09
2023-03-26T07:46:53.284Z,100318.91
2023-03-26T07:49:20.526Z,100317.22
2023-03-26T07:51:48.546Z,100317.72
2023-03-26T07:54:16.225Z,100317.44
2023-03-26T07:57:14.343Z,100321.47
2023-03-26T07:59:52.522Z,100331.78
2023-03-26T08:02:31.593Z,100326.88
2023-03-26T08:05:39.028Z,100329.50
2023-03-26T08:08:17.378Z,100335.72
2023-03-26T08:11:07.578Z,100325.88
2023-03-26T08:14:03.849Z,100326.50
2023-03-26T08:16:39.946Z,100321.00
2023-03-26T08:19:34.766Z,100321.59
2023-03-26T08:22:12.209Z,100313.34
2023-03-26T08:25:03.091Z,100315.50
2023-03-26T08:27:40.329Z,100337.56
2023-03-26T08:30:25.378Z,100320.78
2023-03-26T08:32:56.868Z,100329.84
2023-03-26T08:35:25.411Z,100320.59
2023-03-26T08:37:52.320Z,100322.16
2023-03-26T08:40:53.535Z,100330.63
2023-03-26T08:43:23.277Z,100335.00
2023-03-26T08:46:12.886Z,100341.63
2023-03-26T08:48:57.966Z,100344.25
2023-03-26T08:51:37.369Z,100344.59
2023-03-26T08:54:35.178Z,100339.06
2023-03-26T08:57:39.590Z,100331.47
2023-03-26T09:00:18.241Z,100341.63
2023-03-26T09:03:15.437Z,100353.53
2023-03-26T09:06:03.442Z,100334.41
2023-03-26T09:08:54.452Z,100345.63
2023-03-26T09:11:43.090Z,100308.31
2023-03-26T09:14:25.113Z,100317.31
2023-03-26T09:17:22.718Z,100321.31
2023-03-26T09:20:14.327Z,100319.53
2023-03-26T09:23:10.202Z,100313.84
2023-03-26T09:25:56.577Z,100325.31
2023-03-26T09:28:35.464Z,100310.88
2023-03-26T09:31:11.450Z,100308.44
2023-03-26T09:34:13.128Z,100297.28
2023-03-26T09:36:57.622Z,100312.44
2023-03-26T09:39:38.872Z,100275.81
2023-03-26T09:42:23.363Z,100302.56
2023-03-26T09:45:22.523Z,100290.16
2023-03-26T09:48:38.843Z,100302.59
2023-03-26T09:51:14.566Z,100293.56
2023-03-26T09:53:56.510Z,100278.25
2023-03-26T09:56:27.515Z,100315.03
2023-03-26T09:59:21.600Z,100283.66
2023-03-26T10:02:45.877Z,100296.78
2023-03-26T10:05:16.965Z,100291.44
2023-03-26T10:08:12.541Z,100295.94
2023-03-26T10:11:13.332Z,100293.28
2023-03-26T10:14:03.759Z,100280.53
2023-03-26T10:17:06.731Z,100308.63
2023-03-26T10:19:50.639Z,100320.31
2023-03-26T10:23:03.909Z,100350.25
2023-03-26T10:25:36.499Z,100322.06
2023-03-26T10:28:16.691Z,100311.00
2023-03-26T10:31:25.311Z,100318.75
2023-03-26T10:34:11.016Z,100300.22
2023-03-26T10:37:30.932Z,100314.72
2023-03-26T10:40:17.163Z,100305.63
2023-03-26T10:42:59.887Z,100303.13
2023-03-26T10:45:45.287Z,100322.13
2023-03-26T10:48:27.742Z,100302.22
2023-03-26T10:51:13.115Z,100283.44
2023-03-26T10:53:53.707Z,100273.63
2023-03-26T10:56:31.084Z,100294.97
2023-03-26T10:59:05.663Z,100318.03
2023-03-26T11:01:42.520Z,100336.13
2023-03-26T11:04:28.763Z,100311.66
2023-03-26T11:07:05.381Z,100274.81
2023-03-26T11:09:49.053Z,100307.44
2023-03-26T11:12:56.140Z,100310.22
2023-03-26T11:15:41.387Z,100323.13
2023-03-26T11:18:17.093Z,100300.72
2023-03-26T11:20:53.633Z,100323.34
2023-03-26T11:23:42.421Z,100317.97
2023-03-26T11:26:21.097Z,100298.66
2023-03-26T11:29:03.813Z,100306.91
2023-03-26T11:32:10.906Z,100323.28
2023-03-26T11:35:08.276Z,100319.63
2023-03-26T11:37:44.190Z,100313.03
2023-03-26T11:40:33.540Z,100326.75
2023-03-26T11:43:07.667Z,100329.22
2023-03-26T11:45:39.188Z,100343.94
2023-03-26T11:48:22.974Z,100366.56
2023-03-26T11:50:55.838Z,100343.38
2023-03-26T11:53:29.022Z,100353.47
2023-03-26T11:56:20.848Z,100341.31
2023-03-26T11:58:47.423Z,100355.38
2023-03-26T12:01:17.245Z,100352.66
2023-03-26T12:03:56.327Z,100355.22
2023-03-26T12:06:27.180Z,100365.22
2023-03-26T12:08:55.174Z,100376.53
2023-03-26T12:11:32.183Z,100373.72
2023-03-26T12:14:03.896Z,100380.19
2023-03-26T12:16:30.629Z,100361.25
2023-03-26T12:19:05.387Z,100318.69
2023-03-26T12:21:49.814Z,100320.44
2023-03-26T12:24:33.831Z,100327.44
2023-03-26T12:27:24.841Z,100333.81
2023-03-26T12:30:12.981Z,100323.59
2023-03-26T12:32:46.432Z,100369.84
2023-03-26T12:35:19.074Z,100332.28
2023-03-26T12:37:47.250Z,100336.28
2023-03-26T12:40:36.435Z,100346.03
2023-03-26T12:44:47.214Z,100333.44
2023-03-26T12:47:56.447Z,100321.38
2023-03-26T12:49:11.909Z,100334.69
2023-03-26T12:51:58.955Z,100344.44
2023-03-26T12:54:45.626Z,100333.38
2023-03-26T12:57:24.810Z,100347.38
2023-03-26T13:00:15.115Z,100319.63
2023-03-26T13:03:01.059Z,100343.09
2023-03-26T13:05:51.208Z,100350.75
2023-03-26T13:08:29.395Z,100365.09
2023-03-26T13:11:02.594Z,100343.19
2023-03-26T13:13:52.786Z,100346.38
2023-03-26T13:16:37.394Z,100366.16
2023-03-26T13:19:13.337Z,100372.13
2023-03-26T13:22:08.582Z,100362.28
2023-03-26T13:25:16.775Z,100353.66
2023-03-26T13:28:01.574Z,100359.34
2023-03-26T13:30:40.459Z,100343.69
2023-03-26T13:33:07.055Z,100356.59
2023-03-26T13:35:39.150Z,100330.06
2023-03-26T13:38:15.356Z,100323.88
2023-03-26T13:41:25.804Z,100342.28
2023-03-26T13:44:23.664Z,100343.31
2023-03-26T13:46:59.387Z,100316.38
2023-03-26T13:49:41.731Z,100316.19
2023-03-26T13:52:14.303Z,100310.38
2023-03-26T13:55:02.628Z,100301.97
2023-03-26T13:57:43.078Z,100323.31
2023-03-26T14:00:21.804Z,100329.06
2023-03-26T14:03:03.889Z,100307.47
2023-03-26T14:05:39.364Z,100303.19
2023-03-26T14:08:19.818Z,100284.94
2023-03-26T14:10:55.701Z,100265.84
2023-03-26T14:13:36.796Z,100286.91
2023-03-26T14:16:22.946Z,100300.38
2023-03-26T14:18:58.339Z,100293.97
2023-03-26T14:21:37.236Z,100315.78
2023-03-26T14:24:45.611Z,100290.13
2023-03-26T14:27:32.285Z,100309.63
2023-03-26T14:30:17.799Z,100298.63
2023-03-26T14:33:27.157Z,100320.72
2023-03-26T14:36:09.965Z,100321.53
2023-03-26T14:38:52.214Z,100321.00
2023-03-26T14:41:48.752Z,100323.78
2023-03-26T14:44:24.676Z,100358.72
2023-03-26T14:47:10.273Z,100330.13
2023-03-26T14:50:20.231Z,100283.38
2023-03-26T14:52:47.951Z,100288.53
2023-03-26T14:55:49.842Z,100310.09
2023-03-26T14:58:27.878Z,100339.22
2023-03-26T15:01:40.158Z,100342.03
2023-03-26T15:04:43.739Z,100338.34
2023-03-26T15:07:37.944Z,100349.78
2023-03-26T15:10:14.243Z,100321.81
2023-03-26T15:12:47.304Z,100337.44
2023-03-26T15:15:55.475Z,100342.38
2023-03-26T15:18:48.846Z,100380.53
2023-03-26T15:22:07.199Z,100436.91
2023-03-26T15:25:01.784Z,100454.03
2023-03-26T15:27:30.985Z,100465.78
2023-03-26T15:30:00.638Z,100480.59
2023-03-26T15:32:44.447Z,100484.94
2023-03-26T15:35:50.673Z,100491.34
2023-03-26T15:39:04.868Z,100491.00
2023-03-26T15:41:49.685Z,100496.91
2023-03-26T15:44:52.862Z,100494.28
2023-03-26T15:47:32.776Z,100508.41
2023-03-26T15:50:20.729Z,100512.81
2023-03-26T15:53:11.823Z,100523.31
2023-03-26T15:55:56.384Z,100512.38
2023-03-26T15:58:44.144Z,100522.47
2023-03-26T16:01:35.533Z,100528.22
2023-03-26T16:04:14.500Z,100529.38
2023-03-26T16:07:09.465Z,100534.06
2023-03-26T16:09:45.578Z,100518.13
2023-03-26T16:12:12.107Z,100515.19
2023-03-26T16:14:45.200Z,100512.91
2023-03-26T16:17:17.458Z,100523.19
2023-03-26T16:20:19.828Z,100509.47
2023-03-26T16:23:01.643Z,100518.44
2023-03-26T16:25:33.214Z,100520.72
2023-03-26T16:28:22.422Z,100512.25
2023-03-26T16:31:10.635Z,100531.44
2023-03-26T16:33:57.424Z,100534.13
2023-03-26T16:36:34.384Z,100551.06
2023-03-26T16:39:04.759Z,100562.09
2023-03-26T16:41:33.945Z,100568.25
2023-03-26T16:44:13.856Z,100581.47
2023-03-26T16:46:52.864Z,100597.63
2023-03-26T16:49:35.186Z,100587.13
2023-03-26T16:52:42.744Z,100586.22
2023-03-26T16:55:25.530Z,100588.97
2023-03-26T16:58:27.985Z,100600.19
2023-03-26T17:01:00.586Z,100592.47
2023-03-26T17:03:58.797Z,100601.56
2023-03-26T17:06:45.742Z,100607.56
2023-03-26T17:09:34.371Z,100616.38
2023-03-26T17:12:18.632Z,100624.25
2023-03-26T17:14:54.517Z,100623.72
2023-03-26T17:18:06.036Z,100630.66
2023-03-26T17:20:42.661Z,100636.53
2023-03-26T17:23:44.201Z,100638.69
2023-03-26T17:26:24.000Z,100647.25
2023-03-26T17:29:28.277Z,100657.34
2023-03-26T17:32:12.209Z,100657.84
2023-03-26T17:34:39.113Z,100670.94
2023-03-26T17:37:11.827Z,100672.91
2023-03-26T17:39:43.476Z,100659.09
2023-03-26T17:42:16.253Z,100679.81
2023-03-26T17:45:03.552Z,100684.19
2023-03-26T17:47:52.747Z,100689.09
2023-03-26T17:50:44.068Z,100689.66
2023-03-26T17:53:19.622Z,100686.81
2023-03-26T17:55:50.120Z,100689.50
2023-03-26T17:58:30.009Z,100696.59
2023-03-26T18:01:32.233Z,100699.56
2023-03-26T18:04:02.937Z,100708.16
2023-03-26T18:06:32.496Z,100702.00
2023-03-26T18:09:13.244Z,100717.72
2023-03-26T18:11:50.944Z,100717.59
2023-03-26T18:14:39.409Z,100717.88
2023-03-26T18:17:07.002Z,100721.63
2023-03-26T18:19:54.557Z,100731.28
2023-03-26T18:22:27.708Z,100738.75
2023-03-26T18:25:00.209Z,100725.09
2023-03-26T18:27:36.593Z,100710.03
2023-03-26T18:30:14.424Z,100694.56
2023-03-26T18:32:52.354Z,100681.25
2023-03-26T18:35:21.615Z,100685.97
2023-03-26T18:37:52.017Z,100682.91
2023-03-26T18:40:24.003Z,100686.22
2023-03-26T18:42:57.766Z,100683.41
2023-03-26T18:45:36.464Z,100687.34
2023-03-26T18:48:10.353Z,100690.56
2023-03-26T18:50:40.484Z,100698.63
2023-03-26T18:53:20.797Z,100686.53
2023-03-26T18:55:50.493Z,100684.06
2023-03-26T18:58:34.342Z,100683.75
2023-03-26T19:01:04.746Z,100691.84
2023-03-26T19:03:36.014Z,100689.16
2023-03-26T19:06:04.734Z,100678.72
2023-03-26T19:08:32.760Z,100682.50
2023-03-26T19:11:04.884Z,100692.88
2023-03-26T19:13:33.627Z,100691.06
2023-03-26T19:16:05.153Z,100688.72
2023-03-26T19:18:31.979Z,100707.44
2023-03-26T19:21:02.168Z,100705.72
2023-03-26T19:23:41.156Z,100704.13
2023-03-26T19:26:11.965Z,100706.34
2023-03-26T19:28:43.170Z,100709.72
2023-03-26T19:31:19.707Z,100702.69
2023-03-26T19:33:55.155Z,100711.94
2023-03-26T19:36:25.502Z,100718.13
2023-03-26T19:38:55.047Z,100718.06
2023-03-26T19:41:37.069Z,100719.84
2023-03-26T19:44:16.678Z,100721.38
2023-03-26T19:46:54.014Z,100720.00
2023-03-26T19:49:32.552Z,100725.66
2023-03-26T19:52:26.813Z,100734.50
2023-03-26T19:54:59.307Z,100737.19
2023-03-26T19:57:32.585Z,100746.78
2023-03-26T19:59:59.638Z,100749.53
2023-03-26T20:02:27.487Z,100759.88
2023-03-26T20:04:54.235Z,100771.78
2023-03-26T20:07:35.558Z,100767.78
2023-03-26T20:10:05.534Z,100777.88
2023-03-26T20:12:32.913Z,100766.53
2023-03-26T20:15:00.901Z,100776.56
2023-03-26T20:17:30.823Z,100780.16
2023-03-26T20:19:57.910Z,100797.50
2023-03-26T20:22:24.604Z,100802.22
2023-03-26T20:24:51.684Z,100816.44
2023-03-26T20:27:19.280Z,100819.78
2023-03-26T20:29:46.610Z,100830.25
2023-03-26T20:32:26.402Z,100839.56
2023-03-26T20:34:54.129Z,100848.44
2023-03-26T20:37:20.823Z,100861.88
2023-03-26T20:39:47.508Z,100864.91
2023-03-26T20:42:17.110Z,100869.47
2023-03-26T20:44:43.793Z,100870.53
2023-03-26T20:47:11.461Z,100874.47
2023-03-26T20:49:38.915Z,100881.06
2023-03-26T20:52:05.905Z,100888.16
2023-03-26T20:54:32.632Z,100891.97
2023-03-26T20:56:59.512Z,100894.53
2023-03-26T20:59:27.672Z,100895.72
2023-03-26T21:01:56.726Z,100906.72
2023-03-26T21:04:24.930Z,100907.06
2023-03-26T21:06:53.410Z,100917.22
2023-03-26T21:09:25.628Z,100920.94
2023-03-26T21:12:09.688Z,100925.38
2023-03-26T21:14:41.120Z,100927.63
2023-03-26T21:17:17.252Z,100931.25
2023-03-26T21:19:45.133Z,100937.50
2023-03-26T21:22:46.324Z,100934.13
2023-03-26T21:25:20.072Z,100936.00
2023-03-26T21:27:55.409Z,100941.59
2023-03-26T21:30:23.703Z,100948.84
2023-03-26T21:32:51.371Z,100950.06
2023-03-26T21:35:18.774Z,100960.53
2023-03-26T21:37:48.601Z,100960.75
2023-03-26T21:40:17.961Z,100959.28
2023-03-26T21:42:48.076Z,100963.53
2023-03-26T21:45:15.736Z,100968.38
2023-03-26T21:47:43.200Z,100970.22
2023-03-26T21:50:13.373Z,100973.25
2023-03-26T21:52:47.072Z,100974.78
2023-03-26T21:55:18.755Z,100972.44
2023-03-26T21:58:12.496Z,100975.88
2023-03-26T22:01:09.964Z,100981.06
2023-03-26T22:04:02.071Z,100984.03
2023-03-26T22:06:45.954Z,100988.66
2023-03-26T22:09:13.937Z,100997.66
2023-03-26T22:11:43.531Z,100993.13
2023-03-26T22:14:13.160Z,101003.72
2023-03-26T22:16:41.547Z,100998.69
2023-03-26T22:19:08.704Z,101002.44
2023-03-26T22:21:35.916Z,101010.53
2023-03-26T22:24:04.151Z,101016.88
2023-03-26T22:26:31.395Z,101018.03
2023-03-26T22:28:58.326Z,101017.97
2023-03-26T22:31:26.495Z,101012.81
2023-03-26T22:33:54.280Z,101009.53
2023-03-26T22:36:23.156Z,101008.56
2023-03-26T22:38:53.865Z,101018.59
2023-03-26T22:41:21.716Z,101022.44
2023-03-26T22:43:52.001Z,101020.91
2023-03-26T22:46:19.449Z,101029.94
2023-03-26T22:48:48.249Z,101039.13
2023-03-26T22:51:15.533Z,101036.56
2023-03-26T22:53:43.482Z,101036.53
2023-03-26T22:56:11.812Z,101033.91
2023-03-26T22:58:38.559Z,101034.13
2023-03-26T23:01:17.919Z,101034.19
2023-03-26T23:03:44.936Z,101042.38
2023-03-26T23:06:12.086Z,101043.78
2023-03-26T23:08:40.518Z,101045.31
2023-03-26T23:11:15.440Z,101048.03
2023-03-26T23:13:43.401Z,101048.22
2023-03-26T23:16:11.564Z,101053.66
2023-03-26T23:18:39.237Z,101059.97
2023-03-26T23:21:12.157Z,101065.59
2023-03-26T23:23:39.735Z,101066.66
2023-03-26T23:26:07.058Z,101075.78
2023-03-26T23:28:35.024Z,101083.63
2023-03-26T23:31:05.000Z,101079.41
2023-03-26T23:33:35.324Z,101081.22
2023-03-26T23:36:07.541Z,101080.28
2023-03-26T23:38:44.126Z,101090.75
2023-03-26T23:41:15.809Z,101091.72
2023-03-26T23:43:53.537Z,101087.97
2023-03-26T23:46:23.911Z,101091.16
2023-03-26T23:48:51.702Z,101099.16
2023-03-26T23:51:22.346Z,101106.19
2023-03-26T23:53:49.600Z,101105.25
2023-03-26T23:56:17.013Z,101104.22
2023-03-26T23:58:43.818Z,101116.84
